Kuin — EA5984 — position and weather

sailwx.info

Track history (hours):
 
Tides and Currents Weather Stations Pressure Air Temp Water Temp Dewpoint Dewpoint Depression Visibility Wind Speed Wind Dir Waves Ship Positions

Kuin

Last reported at 2018-Jun-18 17:31 UTC. Time now 2018-Jun-21 23:59 UTC.
Position N 43°23' W 003°06'.

Length 12 m.

Type: Sailing vessel. MMSI: 224120260.

Date/timePositionNaut miles runAvg speedWind from/ knotsBaromVisibWave heightAir tempDewpointWater temp
2018-Jun-18 17:31N 43°23' W 003°06'0 5.2
2018-Jun-18 17:30N 43°23' W 003°06'  
2018-Jun-10 11:28N 43°28' W 002°45'2 3.8
2018-Jun-10 11:00N 43°27' W 002°43'3 5.2
2018-Jun-10 10:31N 43°26' W 002°40'17 1.9
2018-Jun-10 01:34N 43°19' W 002°18'1 5.4
2018-Jun-10 01:24N 43°19' W 002°17'2 5.3
2018-Jun-10 01:00N 43°19' W 002°14'3 5.3
2018-Jun-10 00:30N 43°19' W 002°10'3 5.2
2018-Jun-10 00:00N 43°20' W 002°07'3 5.1
2018-Jun-09 23:30N 43°20' W 002°03'2 4.5
2018-Jun-09 23:00N 43°20' W 002°00'3 1.0
2018-Jun-09 19:49N 43°20' W 001°56'1 3.5
2018-Jun-09 19:31N 43°21' W 001°55'3 5.2
2018-Jun-09 19:00N 43°23' W 001°52'9 0.8
2018-Jun-09 07:34N 43°27' W 002°03'2 5.5
2018-Jun-09 07:17N 43°26' W 002°05'2 5.9
2018-Jun-09 07:00N 43°26' W 002°07'3 5.1
2018-Jun-09 06:31N 43°25' W 002°11'1 2.9
2018-Jun-09 06:01N 43°25' W 002°13'1 2.9
2018-Jun-09 05:30N 43°25' W 002°15'1 2.7
2018-Jun-09 05:01N 43°25' W 002°16'1 2.4
2018-Jun-09 04:30N 43°25' W 002°18'3 5.5
2018-Jun-09 04:00N 43°25' W 002°22'2 5.1
2018-Jun-09 03:31N 43°26' W 002°25'2 4.8
2018-Jun-09 03:01N 43°26' W 002°29'2 3.5
2018-Jun-09 02:31N 43°25' W 002°31'2 3.9
2018-Jun-09 02:01N 43°26' W 002°34'2 3.3
2018-Jun-09 01:29N 43°26' W 002°36'2 3.5
2018-Jun-09 01:00N 43°26' W 002°38'2 4.3
2018-Jun-09 00:30N 43°26' W 002°41'2 3.0
2018-Jun-08 23:58N 43°25' W 002°43'0 0.0
2018-Jun-08 23:28N 43°25' W 002°43'0 0.0
2018-Jun-08 22:58N 43°25' W 002°43'1 1.1
2018-Jun-08 22:30N 43°25' W 002°42'3 5.5
2018-Jun-08 22:00N 43°28' W 002°45'3 5.4
2018-Jun-08 21:27N 43°27' W 002°49'8 5.1
2018-Jun-08 19:48N 43°25' W 002°60'  
Track history (hours):
 
Tides and Currents Weather Stations Pressure Air Temp Water Temp Dewpoint Dewpoint Depression Visibility Wind Speed Wind Dir Waves Ship Positions

Kuin

Last reported at 2018-Jun-18 17:31 UTC. Time now 2018-Jun-21 23:59 UTC.
Position N 43°23' W 003°06'.

Length 12 m.

Type: Sailing vessel. MMSI: 224120260.

Date/timePositionNaut miles runAvg speedWind from/ knotsBaromVisibWave heightAir tempDewpointWater temp
2018-Jun-18 17:31N 43°23' W 003°06'0 5.2
2018-Jun-18 17:30N 43°23' W 003°06'  
2018-Jun-10 11:28N 43°28' W 002°45'2 3.8
2018-Jun-10 11:00N 43°27' W 002°43'3 5.2
2018-Jun-10 10:31N 43°26' W 002°40'17 1.9
2018-Jun-10 01:34N 43°19' W 002°18'1 5.4
2018-Jun-10 01:24N 43°19' W 002°17'2 5.3
2018-Jun-10 01:00N 43°19' W 002°14'3 5.3
2018-Jun-10 00:30N 43°19' W 002°10'3 5.2
2018-Jun-10 00:00N 43°20' W 002°07'3 5.1
2018-Jun-09 23:30N 43°20' W 002°03'2 4.5
2018-Jun-09 23:00N 43°20' W 002°00'3 1.0
2018-Jun-09 19:49N 43°20' W 001°56'1 3.5
2018-Jun-09 19:31N 43°21' W 001°55'3 5.2
2018-Jun-09 19:00N 43°23' W 001°52'9 0.8
2018-Jun-09 07:34N 43°27' W 002°03'2 5.5
2018-Jun-09 07:17N 43°26' W 002°05'2 5.9
2018-Jun-09 07:00N 43°26' W 002°07'3 5.1
2018-Jun-09 06:31N 43°25' W 002°11'1 2.9
2018-Jun-09 06:01N 43°25' W 002°13'1 2.9
2018-Jun-09 05:30N 43°25' W 002°15'1 2.7
2018-Jun-09 05:01N 43°25' W 002°16'1 2.4
2018-Jun-09 04:30N 43°25' W 002°18'3 5.5
2018-Jun-09 04:00N 43°25' W 002°22'2 5.1
2018-Jun-09 03:31N 43°26' W 002°25'2 4.8
2018-Jun-09 03:01N 43°26' W 002°29'2 3.5
2018-Jun-09 02:31N 43°25' W 002°31'2 3.9
2018-Jun-09 02:01N 43°26' W 002°34'2 3.3
2018-Jun-09 01:29N 43°26' W 002°36'2 3.5
2018-Jun-09 01:00N 43°26' W 002°38'2 4.3
2018-Jun-09 00:30N 43°26' W 002°41'2 3.0
2018-Jun-08 23:58N 43°25' W 002°43'0 0.0
2018-Jun-08 23:28N 43°25' W 002°43'0 0.0
2018-Jun-08 22:58N 43°25' W 002°43'1 1.1
2018-Jun-08 22:30N 43°25' W 002°42'3 5.5
2018-Jun-08 22:00N 43°28' W 002°45'3 5.4
2018-Jun-08 21:27N 43°27' W 002°49'8 5.1
2018-Jun-08 19:48N 43°25' W 002°60'  

Dump ship's entire track history